createdAt,value
2023-04-02T00:01:01.748Z,97927.00
2023-04-02T00:03:42.393Z,97931.38
2023-04-02T00:06:32.623Z,97929.75
2023-04-02T00:09:17.244Z,97932.94
2023-04-02T00:11:48.530Z,97936.72
2023-04-02T00:14:21.637Z,97928.28
2023-04-02T00:16:48.591Z,97936.91
2023-04-02T00:19:20.993Z,97936.50
2023-04-02T00:21:48.130Z,97948.81
2023-04-02T00:24:17.843Z,97938.91
2023-04-02T00:26:46.880Z,97949.25
2023-04-02T00:29:15.696Z,97944.94
2023-04-02T00:31:45.414Z,97942.34
2023-04-02T00:34:35.021Z,97940.72
2023-04-02T00:37:02.806Z,97947.38
2023-04-02T00:39:32.916Z,97943.38
2023-04-02T00:42:05.852Z,97941.28
2023-04-02T00:44:45.387Z,97938.44
2023-04-02T00:47:26.931Z,97942.00
2023-04-02T00:50:06.093Z,97935.50
2023-04-02T00:52:34.828Z,97939.81
2023-04-02T00:55:15.760Z,97934.31
2023-04-02T00:57:45.026Z,97933.31
2023-04-02T01:00:19.786Z,97940.78
2023-04-02T01:03:16.344Z,97939.91
2023-04-02T01:06:10.698Z,97931.84
2023-04-02T01:08:41.785Z,97936.41
2023-04-02T01:11:32.620Z,97933.81
2023-04-02T01:14:07.166Z,97945.09
2023-04-02T01:17:19.966Z,97947.53
2023-04-02T01:20:17.370Z,97949.94
2023-04-02T01:22:56.278Z,97944.09
2023-04-02T01:25:28.814Z,97943.56
2023-04-02T01:28:23.925Z,97949.22
2023-04-02T01:30:54.384Z,97947.97
2023-04-02T01:33:23.768Z,97943.78
2023-04-02T01:36:09.611Z,97942.22
2023-04-02T01:38:53.865Z,97943.78
2023-04-02T01:41:41.797Z,97941.91
2023-04-02T01:44:12.977Z,97939.22
2023-04-02T01:46:42.212Z,97942.91
2023-04-02T01:49:19.899Z,97946.97
2023-04-02T01:51:53.105Z,97944.44
2023-04-02T01:54:20.986Z,97948.44
2023-04-02T01:56:48.405Z,97947.22
2023-04-02T01:59:18.515Z,97949.00
2023-04-02T02:02:07.910Z,97949.72
2023-04-02T02:04:35.045Z,97952.41
2023-04-02T02:07:02.576Z,97948.16
2023-04-02T02:09:32.588Z,97948.16
2023-04-02T02:12:02.660Z,97954.09
2023-04-02T02:14:30.821Z,97952.72
2023-04-02T02:17:02.162Z,97952.09
2023-04-02T02:19:42.501Z,97957.19
2023-04-02T02:22:31.693Z,97951.50
2023-04-02T02:25:02.008Z,97961.75
2023-04-02T02:27:28.662Z,97973.44
2023-04-02T02:30:20.008Z,97971.50
2023-04-02T02:33:02.350Z,97980.19
2023-04-02T02:35:55.269Z,97977.66
2023-04-02T02:38:26.795Z,97982.47
2023-04-02T02:40:58.372Z,97978.63
2023-04-02T02:43:26.816Z,97986.25
2023-04-02T02:45:56.781Z,97979.59
2023-04-02T02:48:34.155Z,97974.41
2023-04-02T02:51:02.781Z,97971.81
2023-04-02T02:53:30.181Z,97973.53
2023-04-02T02:56:01.666Z,97970.00
2023-04-02T02:58:31.972Z,97981.06
2023-04-02T03:00:59.115Z,97978.63
2023-04-02T03:03:32.830Z,97986.84
2023-04-02T03:06:09.371Z,97985.44
2023-04-02T03:08:45.408Z,97987.25
2023-04-02T03:11:40.606Z,97998.13
2023-04-02T03:14:18.383Z,97990.59
2023-04-02T03:16:49.850Z,97993.56
2023-04-02T03:19:43.816Z,98003.63
2023-04-02T03:22:16.429Z,97998.69
2023-04-02T03:24:53.868Z,98000.28
2023-04-02T03:27:26.418Z,97992.34
2023-04-02T03:30:20.923Z,97999.16
2023-04-02T03:32:49.826Z,98005.91
2023-04-02T03:35:22.414Z,98009.50
2023-04-02T03:37:59.024Z,98008.66
2023-04-02T03:40:31.621Z,98007.63
2023-04-02T03:43:02.338Z,98010.28
2023-04-02T03:45:35.814Z,98024.19
2023-04-02T03:48:27.698Z,98013.38
2023-04-02T03:51:04.103Z,98020.78
2023-04-02T03:53:32.479Z,98018.44
2023-04-02T03:56:00.686Z,98021.28
2023-04-02T03:58:49.922Z,98023.38
2023-04-02T04:01:46.603Z,98020.22
2023-04-02T04:04:20.574Z,98011.38
2023-04-02T04:06:52.391Z,98015.16
2023-04-02T04:09:37.892Z,98015.84
2023-04-02T04:12:25.613Z,98022.81
2023-04-02T04:15:00.464Z,98021.91
2023-04-02T04:18:02.133Z,98025.56
2023-04-02T04:20:46.110Z,98027.03
2023-04-02T04:23:19.889Z,98025.41
2023-04-02T04:25:49.475Z,98025.97
2023-04-02T04:28:41.557Z,98033.47
2023-04-02T04:31:25.341Z,98031.91
2023-04-02T04:34:03.086Z,98029.72
2023-04-02T04:36:36.713Z,98035.22
2023-04-02T04:39:14.673Z,98040.19
2023-04-02T04:41:42.530Z,98034.56
2023-04-02T04:44:44.603Z,98038.47
2023-04-02T04:47:20.893Z,98043.81
2023-04-02T04:50:24.144Z,98040.34
2023-04-02T04:52:50.703Z,98049.78
2023-04-02T04:55:38.661Z,98052.28
2023-04-02T04:58:30.182Z,98048.56
2023-04-02T05:01:14.305Z,98047.00
2023-04-02T05:03:55.917Z,98063.25
2023-04-02T05:06:31.898Z,98053.19
2023-04-02T05:09:06.034Z,98054.31
2023-04-02T05:11:38.401Z,98065.19
2023-04-02T05:14:12.787Z,98059.50
2023-04-02T05:16:46.244Z,98068.09
2023-04-02T05:19:17.347Z,98068.09
2023-04-02T05:21:50.991Z,98075.84
2023-04-02T05:25:00.773Z,98072.59
2023-04-02T05:27:45.112Z,98072.25
2023-04-02T05:30:20.726Z,98074.31
2023-04-02T05:32:53.923Z,98080.31
2023-04-02T05:35:27.788Z,98083.97
2023-04-02T05:37:54.580Z,98083.56
2023-04-02T05:40:53.459Z,98090.78
2023-04-02T05:43:25.875Z,98086.81
2023-04-02T05:45:59.158Z,98086.63
2023-04-02T05:48:32.636Z,98094.28
2023-04-02T05:51:00.054Z,98100.63
2023-04-02T05:53:32.875Z,98093.16
2023-04-02T05:56:05.223Z,98094.19
2023-04-02T05:58:37.411Z,98096.06
2023-04-02T06:01:30.855Z,98101.94
2023-04-02T06:04:12.100Z,98098.50
2023-04-02T06:06:41.853Z,98106.13
2023-04-02T06:09:22.756Z,98109.41
2023-04-02T06:12:04.676Z,98117.94
2023-04-02T06:14:31.224Z,98107.59
2023-04-02T06:16:57.989Z,98116.78
2023-04-02T06:19:32.880Z,98116.22
2023-04-02T06:22:10.784Z,98123.13
2023-04-02T06:24:40.407Z,98126.94
2023-04-02T06:27:11.866Z,98132.50
2023-04-02T06:29:44.283Z,98133.50
2023-04-02T06:32:12.370Z,98135.63
2023-04-02T06:34:41.618Z,98140.56
2023-04-02T06:37:17.434Z,98141.88
2023-04-02T06:39:43.965Z,98155.66
2023-04-02T06:42:23.790Z,98152.34
2023-04-02T06:44:51.113Z,98152.19
2023-04-02T06:47:34.330Z,98158.53
2023-04-02T06:50:14.989Z,98158.69
2023-04-02T06:52:54.053Z,98165.59
2023-04-02T06:55:20.570Z,98166.22
2023-04-02T06:57:48.369Z,98166.72
2023-04-02T07:00:25.409Z,98171.75
2023-04-02T07:02:53.624Z,98176.19
2023-04-02T07:05:20.309Z,98176.63
2023-04-02T07:07:46.859Z,98185.16
2023-04-02T07:10:13.366Z,98182.66
2023-04-02T07:12:39.872Z,98190.63
2023-04-02T07:15:07.174Z,98188.00
2023-04-02T07:17:34.056Z,98189.66
2023-04-02T07:20:00.625Z,98195.66
2023-04-02T07:22:27.232Z,98194.09
2023-04-02T07:24:53.814Z,98198.22
2023-04-02T07:27:20.289Z,98202.72
2023-04-02T07:29:46.757Z,98197.66
2023-04-02T07:32:13.769Z,98204.19
2023-04-02T07:34:41.539Z,98203.69
2023-04-02T07:37:12.902Z,98215.38
2023-04-02T07:39:40.683Z,98212.88
2023-04-02T07:42:08.042Z,98210.03
2023-04-02T07:44:34.654Z,98213.78
2023-04-02T07:47:01.268Z,98214.09
2023-04-02T07:49:27.890Z,98212.31
2023-04-02T07:51:54.917Z,98219.72
2023-04-02T07:54:21.522Z,98225.91
2023-04-02T07:56:48.080Z,98231.00
2023-04-02T07:59:14.892Z,98230.38
2023-04-02T08:01:43.125Z,98243.66
2023-04-02T08:04:18.336Z,98237.53
2023-04-02T08:06:45.608Z,98239.13
2023-04-02T08:09:12.138Z,98247.38
2023-04-02T08:11:38.670Z,98238.13
2023-04-02T08:14:05.172Z,98245.16
2023-04-02T08:16:56.004Z,98248.44
2023-04-02T08:19:22.994Z,98251.63
2023-04-02T08:21:51.660Z,98246.97
2023-04-02T08:24:21.522Z,98252.50
2023-04-02T08:26:50.086Z,98258.53
2023-04-02T08:29:16.826Z,98250.75
2023-04-02T08:31:43.390Z,98248.38
2023-04-02T08:34:10.164Z,98257.28
2023-04-02T08:36:38.982Z,98255.50
2023-04-02T08:39:10.995Z,98248.47
2023-04-02T08:41:44.423Z,98255.56
2023-04-02T08:44:39.824Z,98261.50
2023-04-02T08:47:08.113Z,98269.03
2023-04-02T08:49:41.079Z,98258.69
2023-04-02T08:52:22.117Z,98278.56
2023-04-02T08:54:49.716Z,98269.66
2023-04-02T08:57:19.004Z,98273.75
2023-04-02T08:59:45.759Z,98268.94
2023-04-02T09:02:28.159Z,98271.66
2023-04-02T09:04:57.915Z,98278.72
2023-04-02T09:07:26.721Z,98284.59
2023-04-02T09:09:53.290Z,98282.72
2023-04-02T09:12:25.882Z,98277.63
2023-04-02T09:15:10.670Z,98285.63
2023-04-02T09:17:50.730Z,98282.38
2023-04-02T09:20:26.092Z,98286.69
2023-04-02T09:22:54.255Z,98293.63
2023-04-02T09:25:27.427Z,98296.13
2023-04-02T09:27:56.957Z,98299.13
2023-04-02T09:30:32.397Z,98290.03
2023-04-02T09:33:02.560Z,98291.44
2023-04-02T09:35:32.336Z,98289.00
2023-04-02T09:38:07.756Z,98290.44
2023-04-02T09:40:58.837Z,98297.41
2023-04-02T09:43:31.150Z,98293.59
2023-04-02T09:45:59.920Z,98293.66
2023-04-02T09:48:34.257Z,98294.28
2023-04-02T09:51:23.952Z,98304.94
2023-04-02T09:54:02.325Z,98302.28
2023-04-02T09:56:33.565Z,98303.41
2023-04-02T09:59:05.786Z,98303.06
2023-04-02T10:01:35.355Z,98308.16
2023-04-02T10:04:04.670Z,98307.06
2023-04-02T10:06:32.814Z,98310.00
2023-04-02T10:09:29.581Z,98307.44
2023-04-02T10:11:57.592Z,98311.13
2023-04-02T10:14:31.415Z,98311.44
2023-04-02T10:17:06.491Z,98318.72
2023-04-02T10:19:43.460Z,98320.13
2023-04-02T10:22:16.531Z,98324.66
2023-04-02T10:24:43.502Z,98317.69
2023-04-02T10:27:17.595Z,98315.47
2023-04-02T10:29:44.171Z,98317.94
2023-04-02T10:32:30.580Z,98327.91
2023-04-02T10:35:04.427Z,98321.19
2023-04-02T10:37:40.073Z,98326.84
2023-04-02T10:40:22.074Z,98329.66
2023-04-02T10:43:39.337Z,98323.41
2023-04-02T10:46:18.046Z,98322.75
2023-04-02T10:49:04.514Z,98330.69
2023-04-02T10:51:51.557Z,98331.38
2023-04-02T10:54:23.821Z,98331.44
2023-04-02T10:56:53.307Z,98327.75
2023-04-02T10:59:26.153Z,98329.50
2023-04-02T11:01:56.821Z,98325.47
2023-04-02T11:04:58.521Z,98336.25
2023-04-02T11:07:32.813Z,98348.03
2023-04-02T11:10:00.841Z,98346.09
2023-04-02T11:12:59.352Z,98351.16
2023-04-02T11:15:26.263Z,98351.19
2023-04-02T11:17:53.129Z,98349.81
2023-04-02T11:20:56.347Z,98357.84
2023-04-02T11:23:27.462Z,98358.91
2023-04-02T11:26:34.627Z,98367.81
2023-04-02T11:29:16.802Z,98362.72
2023-04-02T11:31:44.882Z,98364.88
2023-04-02T11:35:06.568Z,98364.81
2023-04-02T11:37:41.114Z,98371.59
2023-04-02T11:40:16.489Z,98374.22
2023-04-02T11:42:45.662Z,98366.88
2023-04-02T11:45:24.083Z,98370.38
2023-04-02T11:47:59.463Z,98376.44
2023-04-02T11:50:44.131Z,98369.75
2023-04-02T11:53:10.822Z,98378.50
2023-04-02T11:55:45.551Z,98381.03
2023-04-02T11:58:52.481Z,98384.47
2023-04-02T12:01:40.134Z,98384.75
2023-04-02T12:04:21.957Z,98389.69
2023-04-02T12:07:06.954Z,98383.44
2023-04-02T12:09:46.515Z,98386.63
2023-04-02T12:12:29.074Z,98385.09
2023-04-02T12:14:57.595Z,98380.47
2023-04-02T12:17:28.724Z,98388.13
2023-04-02T12:19:59.210Z,98399.63
2023-04-02T12:22:29.157Z,98390.50
2023-04-02T12:25:07.229Z,98399.97
2023-04-02T12:27:38.321Z,98397.03
2023-04-02T12:30:13.000Z,98398.47
2023-04-02T12:32:39.509Z,98396.56
2023-04-02T12:35:08.180Z,98399.88
2023-04-02T12:37:34.635Z,98398.03
2023-04-02T12:40:07.467Z,98403.72
2023-04-02T12:42:37.061Z,98404.25
2023-04-02T12:45:05.480Z,98397.72
2023-04-02T12:47:32.178Z,98405.00
2023-04-02T12:50:00.864Z,98397.16
2023-04-02T12:52:29.167Z,98405.84
2023-04-02T12:55:01.574Z,98407.22
2023-04-02T12:57:29.000Z,98408.03
2023-04-02T13:00:22.107Z,98404.25
2023-04-02T13:02:51.377Z,98416.72
2023-04-02T13:05:36.424Z,98413.72
2023-04-02T13:08:04.624Z,98409.16
2023-04-02T13:10:31.290Z,98414.25
2023-04-02T13:13:02.544Z,98420.44
2023-04-02T13:15:32.102Z,98418.84
2023-04-02T13:18:04.696Z,98415.00
2023-04-02T13:20:39.980Z,98410.66
2023-04-02T13:23:37.387Z,98409.00
2023-04-02T13:26:18.835Z,98417.03
2023-04-02T13:29:03.640Z,98412.19
2023-04-02T13:31:32.591Z,98418.41
2023-04-02T13:33:59.245Z,98415.75
2023-04-02T13:36:29.161Z,98418.72
2023-04-02T13:38:56.463Z,98419.53
2023-04-02T13:41:26.478Z,98412.75
2023-04-02T13:43:59.666Z,98426.28
2023-04-02T13:46:28.843Z,98421.41
2023-04-02T13:48:56.193Z,98423.03
2023-04-02T13:51:35.781Z,98424.59
2023-04-02T13:54:03.859Z,98426.19
2023-04-02T13:56:31.182Z,98432.13
2023-04-02T13:58:57.637Z,98429.13
2023-04-02T14:01:25.185Z,98432.22
2023-04-02T14:03:53.409Z,98433.81
2023-04-02T14:06:29.755Z,98437.13
2023-04-02T14:09:14.754Z,98434.66
2023-04-02T14:11:47.875Z,98431.19
2023-04-02T14:14:32.815Z,98439.31
2023-04-02T14:17:28.073Z,98438.53
2023-04-02T14:19:57.585Z,98441.53
2023-04-02T14:23:03.675Z,98446.13
2023-04-02T14:25:33.088Z,98446.38
2023-04-02T14:28:23.716Z,98452.78
2023-04-02T14:31:03.081Z,98448.88
2023-04-02T14:33:43.047Z,98454.25
2023-04-02T14:36:44.905Z,98457.97
2023-04-02T14:39:22.995Z,98462.41
2023-04-02T14:42:00.394Z,98451.03
2023-04-02T14:44:32.306Z,98455.81
2023-04-02T14:47:11.136Z,98452.56
2023-04-02T14:49:43.118Z,98459.16
2023-04-02T14:52:18.742Z,98461.06
2023-04-02T14:54:52.229Z,98459.31
2023-04-02T14:57:52.445Z,98457.09
2023-04-02T15:00:41.892Z,98456.63
2023-04-02T15:03:18.334Z,98452.84
2023-04-02T15:06:06.448Z,98457.22
2023-04-02T15:08:42.343Z,98461.78
2023-04-02T15:11:25.963Z,98465.59
2023-04-02T15:14:07.392Z,98463.16
2023-04-02T15:16:36.402Z,98451.53
2023-04-02T15:19:11.332Z,98459.16
2023-04-02T15:21:58.079Z,98458.06
2023-04-02T15:24:36.053Z,98463.22
2023-04-02T15:27:25.129Z,98456.19
2023-04-02T15:30:09.012Z,98468.09
2023-04-02T15:32:39.125Z,98465.38
2023-04-02T15:35:08.761Z,98471.03
2023-04-02T15:38:14.794Z,98469.09
2023-04-02T15:41:03.027Z,98474.00
2023-04-02T15:43:36.269Z,98475.06
2023-04-02T15:46:10.559Z,98463.75
2023-04-02T15:48:42.945Z,98467.81
2023-04-02T15:51:12.159Z,98468.06
2023-04-02T15:53:43.444Z,98473.75
2023-04-02T15:56:25.184Z,98475.13
2023-04-02T15:59:18.056Z,98481.88
2023-04-02T16:01:55.452Z,98477.28
2023-04-02T16:04:43.685Z,98482.94
2023-04-02T16:07:41.271Z,98485.91
2023-04-02T16:10:33.935Z,98482.41
2023-04-02T16:13:19.490Z,98494.81
2023-04-02T16:15:57.981Z,98506.91
2023-04-02T16:18:44.749Z,98494.44
2023-04-02T16:21:17.872Z,98508.22
2023-04-02T16:23:44.547Z,98511.72
2023-04-02T16:26:48.724Z,98517.34
2023-04-02T16:29:35.398Z,98516.31
2023-04-02T16:32:07.466Z,98519.53
2023-04-02T16:34:51.101Z,98521.16
2023-04-02T16:37:33.120Z,98527.97
2023-04-02T16:40:26.993Z,98524.69
2023-04-02T16:42:53.450Z,98523.00
2023-04-02T16:45:35.439Z,98530.22
2023-04-02T16:48:26.061Z,98527.44
2023-04-02T16:51:01.386Z,98540.66
2023-04-02T16:54:01.680Z,98542.31
2023-04-02T16:56:52.236Z,98546.59
2023-04-02T16:59:33.929Z,98544.41
2023-04-02T17:02:17.352Z,98548.22
2023-04-02T17:04:56.724Z,98556.34
2023-04-02T17:07:49.772Z,98557.47
2023-04-02T17:10:47.257Z,98567.75
2023-04-02T17:13:45.568Z,98560.66
2023-04-02T17:16:12.054Z,98562.44
2023-04-02T17:18:42.249Z,98568.06
2023-04-02T17:21:14.647Z,98566.88
2023-04-02T17:23:55.942Z,98577.53
2023-04-02T17:26:27.521Z,98585.09
2023-04-02T17:28:55.596Z,98580.63
2023-04-02T17:31:24.047Z,98578.44
2023-04-02T17:33:50.722Z,98587.84
2023-04-02T17:36:26.238Z,98589.72
2023-04-02T17:39:20.366Z,98595.13
2023-04-02T17:41:54.800Z,98606.47
2023-04-02T17:44:39.585Z,98614.00
2023-04-02T17:47:11.905Z,98611.81
2023-04-02T17:49:50.734Z,98609.63
2023-04-02T17:52:41.933Z,98616.28
2023-04-02T17:55:20.930Z,98616.69
2023-04-02T17:58:11.240Z,98619.66
2023-04-02T18:00:54.566Z,98630.06
2023-04-02T18:03:39.649Z,98626.69
2023-04-02T18:06:18.048Z,98633.94
2023-04-02T18:09:09.347Z,98642.84
2023-04-02T18:12:07.177Z,98644.16
2023-04-02T18:14:58.429Z,98644.31
2023-04-02T18:17:40.831Z,98646.72
2023-04-02T18:20:22.902Z,98659.63
2023-04-02T18:23:04.859Z,98653.09
2023-04-02T18:26:01.983Z,98664.28
2023-04-02T18:28:56.085Z,98669.69
2023-04-02T18:31:48.139Z,98673.53
2023-04-02T18:34:38.328Z,98669.91
2023-04-02T18:37:54.078Z,98677.91
2023-04-02T18:40:34.207Z,98683.91
2023-04-02T18:43:26.835Z,98689.38
2023-04-02T18:46:05.540Z,98692.97
2023-04-02T18:48:32.119Z,98699.97
2023-04-02T18:51:00.855Z,98701.38
2023-04-02T18:53:31.106Z,98708.38
2023-04-02T18:56:07.449Z,98716.03
2023-04-02T18:58:49.527Z,98721.91
2023-04-02T19:01:22.376Z,98729.06
2023-04-02T19:03:53.179Z,98733.75
2023-04-02T19:06:35.177Z,98737.72
2023-04-02T19:09:11.621Z,98743.59
2023-04-02T19:11:38.219Z,98746.38
2023-04-02T19:14:11.693Z,98751.19
2023-04-02T19:16:53.477Z,98750.59
2023-04-02T19:19:26.591Z,98755.44
2023-04-02T19:22:12.597Z,98765.66
2023-04-02T19:25:08.820Z,98769.31
2023-04-02T19:28:03.514Z,98768.56
2023-04-02T19:30:50.022Z,98772.38
2023-04-02T19:33:25.339Z,98770.19
2023-04-02T19:36:10.033Z,98780.22
2023-04-02T19:39:03.622Z,98775.19
2023-04-02T19:41:42.859Z,98774.38
2023-04-02T19:44:11.914Z,98784.09
2023-04-02T19:46:39.907Z,98785.41
2023-04-02T19:49:22.739Z,98790.88
2023-04-02T19:51:50.068Z,98789.63
2023-04-02T19:54:16.555Z,98789.53
2023-04-02T19:56:43.289Z,98792.69
2023-04-02T19:59:18.033Z,98794.75
2023-04-02T20:01:45.508Z,98800.72
2023-04-02T20:04:12.313Z,98805.88
2023-04-02T20:06:38.804Z,98799.53
2023-04-02T20:09:05.385Z,98805.97
2023-04-02T20:11:31.946Z,98809.50
2023-04-02T20:13:58.426Z,98807.66
2023-04-02T20:16:24.997Z,98813.56
2023-04-02T20:18:51.756Z,98822.97
2023-04-02T20:21:18.343Z,98821.66
2023-04-02T20:23:45.018Z,98826.03
2023-04-02T20:26:12.663Z,98819.38
2023-04-02T20:28:39.205Z,98831.28
2023-04-02T20:31:17.002Z,98831.66
2023-04-02T20:33:47.906Z,98832.22
2023-04-02T20:36:17.047Z,98827.19
2023-04-02T20:38:45.394Z,98831.91
2023-04-02T20:41:12.072Z,98835.66
2023-04-02T20:43:42.423Z,98831.09
2023-04-02T20:46:10.957Z,98840.66
2023-04-02T20:48:38.942Z,98840.44
2023-04-02T20:51:07.541Z,98842.88
2023-04-02T20:53:35.832Z,98840.56
2023-04-02T20:56:11.666Z,98850.25
2023-04-02T20:58:39.418Z,98849.78
2023-04-02T21:01:13.108Z,98857.03
2023-04-02T21:03:40.161Z,98853.41
2023-04-02T21:06:13.178Z,98849.91
2023-04-02T21:08:39.777Z,98858.44
2023-04-02T21:11:07.456Z,98854.59
2023-04-02T21:13:38.476Z,98866.22
2023-04-02T21:16:12.104Z,98871.84
2023-04-02T21:18:38.915Z,98876.31
2023-04-02T21:21:06.903Z,98881.53
2023-04-02T21:23:34.169Z,98880.59
2023-04-02T21:26:04.955Z,98881.13
2023-04-02T21:28:31.987Z,98884.22
2023-04-02T21:31:03.817Z,98887.16
2023-04-02T21:33:31.577Z,98891.56
2023-04-02T21:36:12.398Z,98892.56
2023-04-02T21:38:47.871Z,98889.09
2023-04-02T21:41:18.079Z,98896.06
2023-04-02T21:43:48.591Z,98886.88
2023-04-02T21:46:17.262Z,98891.50
2023-04-02T21:48:44.277Z,98891.41
2023-04-02T21:51:13.933Z,98894.72
2023-04-02T21:53:41.003Z,98896.81
2023-04-02T21:56:16.482Z,98901.19
2023-04-02T21:58:44.405Z,98895.31
2023-04-02T22:01:23.905Z,98901.13
2023-04-02T22:03:57.892Z,98896.13
2023-04-02T22:06:26.670Z,98903.00
2023-04-02T22:08:57.501Z,98909.25
2023-04-02T22:11:27.144Z,98911.47
2023-04-02T22:13:54.579Z,98912.38
2023-04-02T22:16:30.005Z,98915.78
2023-04-02T22:19:01.272Z,98913.44
2023-04-02T22:21:29.140Z,98915.72
2023-04-02T22:23:56.463Z,98919.28
2023-04-02T22:26:23.295Z,98924.00
2023-04-02T22:28:49.949Z,98925.38
2023-04-02T22:31:20.601Z,98926.91
2023-04-02T22:33:47.732Z,98931.88
2023-04-02T22:36:15.919Z,98934.56
2023-04-02T22:38:42.743Z,98932.78
2023-04-02T22:41:17.768Z,98927.56
2023-04-02T22:43:45.700Z,98933.44
2023-04-02T22:46:15.846Z,98946.06
2023-04-02T22:48:43.432Z,98941.75
2023-04-02T22:51:12.091Z,98947.63
2023-04-02T22:53:39.405Z,98951.59
2023-04-02T22:56:10.428Z,98946.81
2023-04-02T22:58:37.763Z,98957.53
2023-04-02T23:01:10.563Z,98954.31
2023-04-02T23:03:37.522Z,98954.41
2023-04-02T23:06:07.399Z,98955.56
2023-04-02T23:08:35.242Z,98961.34
2023-04-02T23:11:22.649Z,98963.38
2023-04-02T23:13:50.881Z,98960.66
2023-04-02T23:16:18.146Z,98964.94
2023-04-02T23:18:48.019Z,98958.91
2023-04-02T23:21:15.567Z,98962.19
2023-04-02T23:23:42.081Z,98960.53
2023-04-02T23:26:11.057Z,98961.66
2023-04-02T23:28:39.248Z,98963.94
2023-04-02T23:31:07.656Z,98969.13
2023-04-02T23:33:35.475Z,98966.81
2023-04-02T23:36:10.506Z,98970.53
2023-04-02T23:38:37.139Z,98966.38
2023-04-02T23:41:03.709Z,98961.69
2023-04-02T23:43:30.418Z,98965.56
2023-04-02T23:45:56.990Z,98966.59
2023-04-02T23:48:23.545Z,98964.13
2023-04-02T23:50:50.085Z,98973.25
2023-04-02T23:53:16.949Z,98977.16
2023-04-02T23:55:43.482Z,98972.16
2023-04-02T23:58:10.103Z,98974.69
